createdAt,value
2018-06-12T00:00:56.178Z,18.46
2018-06-12T00:01:56.072Z,18.48
2018-06-12T00:03:49.429Z,18.43
2018-06-12T00:04:49.403Z,18.28
2018-06-12T00:06:42.744Z,18.31
2018-06-12T00:07:42.688Z,18.31
2018-06-12T00:09:36.069Z,18.34
2018-06-12T00:10:36.005Z,18.39
2018-06-12T00:12:29.362Z,18.41
2018-06-12T00:13:29.315Z,18.36
2018-06-12T00:15:23.623Z,18.39
2018-06-12T00:16:23.597Z,18.28
2018-06-12T00:18:16.962Z,18.28
2018-06-12T00:19:16.915Z,18.34
2018-06-12T00:21:10.240Z,18.21
2018-06-12T00:22:10.219Z,18.26
2018-06-12T00:24:03.537Z,18.30
2018-06-12T00:25:03.514Z,18.24
2018-06-12T00:27:02.509Z,18.21
2018-06-12T00:28:02.512Z,18.18
2018-06-12T00:29:02.473Z,18.24
2018-06-12T00:30:02.450Z,18.18
2018-06-12T00:31:02.440Z,18.17
2018-06-12T00:32:02.373Z,18.17
2018-06-12T00:33:02.382Z,18.15
2018-06-12T00:34:02.352Z,18.12
2018-06-12T00:35:02.317Z,18.18
2018-06-12T00:36:02.283Z,18.17
2018-06-12T00:37:02.273Z,18.15
2018-06-12T00:38:02.269Z,18.06
2018-06-12T00:39:02.211Z,18.12
2018-06-12T00:40:02.197Z,18.13
2018-06-12T00:41:02.154Z,18.12
2018-06-12T00:42:02.134Z,18.21
2018-06-12T00:43:02.142Z,18.20
2018-06-12T00:44:02.102Z,18.20
2018-06-12T00:45:02.061Z,18.15
2018-06-12T00:46:02.040Z,18.13
2018-06-12T00:47:02.018Z,18.12
2018-06-12T00:48:01.985Z,18.26
2018-06-12T00:49:01.941Z,18.15
2018-06-12T00:50:01.929Z,18.20
2018-06-12T00:51:01.907Z,18.20
2018-06-12T00:52:01.885Z,18.15
2018-06-12T00:53:01.856Z,18.09
2018-06-12T00:54:01.828Z,17.97
2018-06-12T00:55:01.792Z,17.94
2018-06-12T00:56:01.772Z,17.83
2018-06-12T00:57:01.741Z,17.91
2018-06-12T00:58:01.721Z,17.91
2018-06-12T00:59:01.702Z,17.91
2018-06-12T01:00:01.735Z,17.96
2018-06-12T01:01:01.646Z,17.96
2018-06-12T01:02:01.614Z,17.97
2018-06-12T01:03:01.585Z,17.86
2018-06-12T01:04:01.581Z,17.72
2018-06-12T01:05:01.715Z,17.65
2018-06-12T01:06:01.515Z,17.75
2018-06-12T01:07:01.541Z,17.68
2018-06-12T01:08:01.458Z,17.69
2018-06-12T01:09:01.453Z,17.73
2018-06-12T01:10:01.406Z,17.68
2018-06-12T01:11:01.379Z,17.66
2018-06-12T01:12:01.362Z,17.72
2018-06-12T01:13:01.350Z,17.78
2018-06-12T01:14:01.305Z,17.63
2018-06-12T01:15:01.289Z,17.65
2018-06-12T01:16:01.259Z,17.66
2018-06-12T01:17:01.223Z,17.63
2018-06-12T01:18:01.200Z,17.72
2018-06-12T01:19:01.183Z,17.71
2018-06-12T01:20:01.151Z,17.83
2018-06-12T01:21:01.123Z,17.86
2018-06-12T01:22:01.092Z,17.73
2018-06-12T01:23:01.075Z,17.84
2018-06-12T01:24:01.056Z,17.84
2018-06-12T01:25:01.036Z,17.83
2018-06-12T01:26:01.013Z,17.81
2018-06-12T01:27:00.963Z,17.84
2018-06-12T01:28:00.953Z,17.69
2018-06-12T01:29:00.922Z,17.65
2018-06-12T01:30:00.890Z,17.65
2018-06-12T01:31:00.873Z,17.59
2018-06-12T01:32:00.842Z,17.52
2018-06-12T01:33:00.818Z,17.52
2018-06-12T01:34:00.792Z,17.39
2018-06-12T01:35:00.760Z,17.41
2018-06-12T01:36:00.735Z,17.41
2018-06-12T01:37:00.711Z,17.46
2018-06-12T01:38:00.707Z,17.54
2018-06-12T01:39:00.660Z,17.46
2018-06-12T01:40:00.636Z,17.59
2018-06-12T01:41:00.607Z,17.63
2018-06-12T01:42:00.577Z,17.59
2018-06-12T01:43:00.562Z,17.50
2018-06-12T01:44:00.531Z,17.47
2018-06-12T01:45:00.506Z,17.47
2018-06-12T01:46:00.497Z,17.43
2018-06-12T01:47:00.451Z,17.46
2018-06-12T01:48:00.430Z,17.53
2018-06-12T01:49:00.399Z,17.52
2018-06-12T01:50:00.398Z,17.50
2018-06-12T01:51:00.380Z,17.46
2018-06-12T01:52:00.327Z,17.62
2018-06-12T01:53:00.300Z,17.63
2018-06-12T01:54:00.295Z,17.53
2018-06-12T01:55:00.244Z,17.56
2018-06-12T01:56:00.220Z,17.63
2018-06-12T01:57:00.200Z,17.57
2018-06-12T01:58:00.169Z,17.52
2018-06-12T01:59:00.143Z,17.39
2018-06-12T02:00:00.131Z,17.52
2018-06-12T02:01:00.095Z,17.46
2018-06-12T02:02:00.058Z,17.32
2018-06-12T02:03:00.073Z,17.46
2018-06-12T02:04:00.040Z,17.38
2018-06-12T02:04:59.987Z,17.49
2018-06-12T02:05:59.964Z,17.56
2018-06-12T02:06:59.930Z,17.54
2018-06-12T02:07:59.904Z,17.62
2018-06-12T02:08:59.878Z,17.54
2018-06-12T02:13:05.667Z,17.50
2018-06-12T02:14:05.637Z,17.45
2018-06-12T02:15:59.067Z,17.32
2018-06-12T02:16:58.915Z,17.37
2018-06-12T02:18:54.296Z,17.43
2018-06-12T02:19:54.221Z,17.52
2018-06-12T02:21:48.536Z,17.65
2018-06-12T02:22:48.535Z,17.62
2018-06-12T02:24:41.860Z,17.35
2018-06-12T02:25:41.808Z,17.35
2018-06-12T02:27:35.159Z,17.38
2018-06-12T02:28:35.147Z,17.31
2018-06-12T02:30:29.457Z,17.45
2018-06-12T02:31:29.402Z,17.34
2018-06-12T02:33:22.774Z,17.34
2018-06-12T02:34:22.836Z,17.35
2018-06-12T02:36:16.090Z,17.37
2018-06-12T02:37:16.037Z,17.32
2018-06-12T02:39:09.365Z,17.24
2018-06-12T02:40:09.332Z,17.35
2018-06-12T02:42:02.706Z,17.25
2018-06-12T02:43:02.666Z,17.28
2018-06-12T02:44:55.976Z,17.25
2018-06-12T02:45:55.971Z,17.14
2018-06-12T02:47:49.314Z,17.20
2018-06-12T02:48:49.241Z,17.22
2018-06-12T02:49:49.220Z,17.20
2018-06-12T02:50:49.195Z,17.24
2018-06-12T02:51:49.169Z,17.39
2018-06-12T02:52:49.154Z,17.37
2018-06-12T02:53:49.113Z,17.34
2018-06-12T02:54:49.086Z,17.34
2018-06-12T02:55:49.059Z,17.37
2018-06-12T02:56:49.068Z,17.34
2018-06-12T02:57:48.999Z,17.27
2018-06-12T02:58:48.981Z,17.30
2018-06-12T02:59:48.947Z,17.07
2018-06-12T03:00:48.927Z,17.17
2018-06-12T03:01:48.907Z,17.02
2018-06-12T03:02:48.871Z,17.04
2018-06-12T03:03:48.842Z,17.07
2018-06-12T03:04:48.822Z,17.10
2018-06-12T03:05:48.821Z,16.98
2018-06-12T03:06:48.763Z,17.06
2018-06-12T03:07:48.744Z,17.02
2018-06-12T03:08:48.717Z,17.07
2018-06-12T03:09:48.683Z,17.04
2018-06-12T03:10:48.660Z,16.98
2018-06-12T03:11:48.672Z,16.95
2018-06-12T03:12:48.626Z,16.98
2018-06-12T03:13:48.598Z,16.97
2018-06-12T03:14:48.560Z,16.98
2018-06-12T03:15:48.576Z,16.88
2018-06-12T03:16:48.534Z,16.94
2018-06-12T03:17:48.492Z,16.90
2018-06-12T03:18:48.461Z,16.97
2018-06-12T03:19:48.437Z,16.98
2018-06-12T03:20:48.421Z,16.98
2018-06-12T03:21:48.388Z,16.95
2018-06-12T03:22:48.400Z,17.04
2018-06-12T03:23:48.327Z,17.13
2018-06-12T03:24:48.292Z,17.13
2018-06-12T03:25:48.278Z,16.90
2018-06-12T03:26:48.256Z,16.92
2018-06-12T03:27:48.217Z,16.97
2018-06-12T03:28:48.192Z,16.91
2018-06-12T03:29:48.170Z,16.95
2018-06-12T03:30:48.166Z,16.90
2018-06-12T03:31:48.136Z,16.97
2018-06-12T03:32:48.089Z,16.94
2018-06-12T03:33:48.085Z,16.88
2018-06-12T03:34:48.036Z,16.76
2018-06-12T03:35:48.005Z,16.76
2018-06-12T03:36:48.014Z,16.84
2018-06-12T03:37:47.969Z,16.90
2018-06-12T03:38:47.930Z,16.88
2018-06-12T03:39:47.909Z,16.84
2018-06-12T03:40:47.888Z,16.91
2018-06-12T03:41:47.849Z,16.92
2018-06-12T03:42:47.847Z,16.94
2018-06-12T03:43:47.807Z,16.97
2018-06-12T03:44:47.808Z,16.80
2018-06-12T03:45:47.762Z,16.80
2018-06-12T03:46:47.722Z,16.74
2018-06-12T03:47:47.688Z,16.82
2018-06-12T03:48:47.693Z,16.92
2018-06-12T03:49:47.642Z,16.95
2018-06-12T03:50:47.638Z,16.80
2018-06-12T03:51:47.597Z,16.74
2018-06-12T03:52:47.562Z,16.92
2018-06-12T03:53:47.537Z,16.76
2018-06-12T03:54:47.515Z,16.88
2018-06-12T03:55:47.490Z,16.82
2018-06-12T03:56:47.460Z,16.82
2018-06-12T03:57:47.429Z,16.83
2018-06-12T03:58:47.402Z,16.80
2018-06-12T03:59:47.372Z,16.83
2018-06-12T04:00:47.369Z,16.70
2018-06-12T04:01:47.323Z,16.64
2018-06-12T04:02:47.305Z,16.70
2018-06-12T04:03:47.295Z,16.79
2018-06-12T04:04:47.245Z,16.77
2018-06-12T04:05:47.218Z,16.69
2018-06-12T04:06:47.207Z,16.83
2018-06-12T04:07:47.257Z,16.88
2018-06-12T04:08:47.143Z,16.84
2018-06-12T04:09:47.111Z,16.87
2018-06-12T04:10:47.085Z,16.76
2018-06-12T04:11:47.070Z,16.79
2018-06-12T04:12:47.035Z,16.74
2018-06-12T04:13:47.005Z,16.61
2018-06-12T04:14:47.070Z,16.64
2018-06-12T04:15:46.969Z,16.58
2018-06-12T04:16:46.935Z,16.72
2018-06-12T04:17:46.904Z,16.77
2018-06-12T04:18:46.883Z,16.74
2018-06-12T04:19:46.865Z,16.79
2018-06-12T04:20:46.821Z,16.77
2018-06-12T04:21:46.798Z,16.74
2018-06-12T04:22:46.768Z,16.77
2018-06-12T04:23:46.739Z,16.80
2018-06-12T04:24:46.713Z,16.79
2018-06-12T04:25:46.691Z,16.73
2018-06-12T04:26:46.659Z,16.70
2018-06-12T04:27:46.636Z,16.77
2018-06-12T04:28:46.621Z,16.79
2018-06-12T04:29:46.614Z,16.80
2018-06-12T04:30:46.556Z,16.73
2018-06-12T04:31:46.565Z,16.80
2018-06-12T04:32:46.499Z,16.74
2018-06-12T04:33:46.472Z,16.64
2018-06-12T04:34:46.458Z,16.74
2018-06-12T04:35:46.422Z,16.74
2018-06-12T04:36:46.407Z,16.67
2018-06-12T04:37:46.385Z,16.76
2018-06-12T04:38:46.354Z,16.76
2018-06-12T04:39:46.321Z,16.69
2018-06-12T04:40:46.306Z,16.72
2018-06-12T04:41:46.264Z,16.80
2018-06-12T04:42:46.238Z,16.80
2018-06-12T04:43:46.211Z,16.97
2018-06-12T04:44:46.188Z,16.87
2018-06-12T04:45:46.157Z,16.92
2018-06-12T04:46:46.135Z,16.90
2018-06-12T04:47:46.106Z,16.90
2018-06-12T04:48:46.084Z,16.88
2018-06-12T04:49:46.136Z,16.99
2018-06-12T04:50:46.161Z,17.02
2018-06-12T04:51:46.049Z,17.01
2018-06-12T04:52:45.979Z,16.97
2018-06-12T04:53:45.950Z,17.01
2018-06-12T04:54:45.928Z,16.95
2018-06-12T04:55:45.900Z,16.87
2018-06-12T04:56:45.876Z,16.92
2018-06-12T04:57:45.853Z,16.88
2018-06-12T04:58:45.917Z,16.82
2018-06-12T04:59:45.876Z,16.70
2018-06-12T05:00:45.800Z,16.74
2018-06-12T05:01:45.740Z,16.70
2018-06-12T05:02:45.725Z,16.70
2018-06-12T05:03:45.699Z,16.72
2018-06-12T05:04:45.653Z,16.67
2018-06-12T05:05:45.627Z,16.74
2018-06-12T05:06:45.610Z,16.74
2018-06-12T05:07:45.584Z,16.74
2018-06-12T05:08:45.562Z,16.79
2018-06-12T05:09:45.541Z,16.83
2018-06-12T05:10:45.506Z,16.95
2018-06-12T05:11:45.487Z,16.87
2018-06-12T05:12:45.460Z,16.95
2018-06-12T05:13:45.429Z,16.97
2018-06-12T05:14:45.403Z,16.87
2018-06-12T05:15:45.373Z,16.92
2018-06-12T05:16:45.337Z,16.94
2018-06-12T05:17:45.320Z,16.99
2018-06-12T05:18:45.295Z,17.06
2018-06-12T05:19:45.370Z,17.06
2018-06-12T05:20:45.238Z,17.07
2018-06-12T05:21:45.214Z,17.02
2018-06-12T05:22:45.181Z,17.12
2018-06-12T05:23:45.160Z,17.16
2018-06-12T05:24:45.145Z,17.20
2018-06-12T05:25:45.115Z,17.27
2018-06-12T05:26:45.091Z,17.27
2018-06-12T05:27:45.058Z,17.41
2018-06-12T05:28:45.027Z,17.31
2018-06-12T05:29:45.001Z,17.37
2018-06-12T05:30:45.002Z,17.34
2018-06-12T05:31:44.953Z,17.39
2018-06-12T05:32:44.930Z,17.49
2018-06-12T05:33:44.895Z,17.50
2018-06-12T05:34:44.893Z,17.28
2018-06-12T05:35:44.848Z,17.25
2018-06-12T05:36:44.838Z,17.31
2018-06-12T05:37:44.803Z,17.38
2018-06-12T05:38:44.774Z,17.49
2018-06-12T05:39:44.756Z,17.69
2018-06-12T05:40:44.740Z,17.50
2018-06-12T05:41:44.694Z,17.47
2018-06-12T05:42:44.669Z,17.57
2018-06-12T05:43:44.649Z,17.71
2018-06-12T05:44:44.618Z,17.54
2018-06-12T05:45:44.593Z,17.59
2018-06-12T05:46:44.582Z,17.46
2018-06-12T05:47:44.534Z,17.41
2018-06-12T05:48:44.508Z,17.45
2018-06-12T05:49:44.551Z,17.54
2018-06-12T05:50:44.460Z,17.62
2018-06-12T05:51:44.434Z,17.57
2018-06-12T05:52:44.407Z,17.49
2018-06-12T05:53:44.378Z,17.35
2018-06-12T05:54:44.352Z,17.46
2018-06-12T05:55:44.387Z,17.43
2018-06-12T05:56:44.310Z,17.35
2018-06-12T05:57:44.284Z,17.37
2018-06-12T05:58:44.255Z,17.39
2018-06-12T05:59:44.236Z,17.50
2018-06-12T06:00:44.224Z,17.63
2018-06-12T06:01:44.189Z,17.49
2018-06-12T06:02:44.158Z,17.46
2018-06-12T06:03:44.131Z,17.50
2018-06-12T06:04:44.116Z,17.56
2018-06-12T06:05:44.090Z,17.56
2018-06-12T06:06:44.045Z,17.59
2018-06-12T06:07:44.038Z,17.63
2018-06-12T06:08:43.998Z,17.54
2018-06-12T06:09:43.974Z,17.59
2018-06-12T06:10:43.969Z,17.62
2018-06-12T06:11:43.970Z,17.72
2018-06-12T06:12:43.992Z,17.57
2018-06-12T06:13:43.863Z,17.54
2018-06-12T06:14:43.844Z,17.76
2018-06-12T06:15:43.832Z,17.69
2018-06-12T06:16:43.893Z,17.62
2018-06-12T06:17:43.772Z,17.75
2018-06-12T06:18:43.744Z,17.86
2018-06-12T06:19:43.711Z,17.91
2018-06-12T06:20:43.686Z,17.94
2018-06-12T06:21:43.665Z,17.86
2018-06-12T06:22:43.691Z,17.90
2018-06-12T06:23:43.609Z,17.91
2018-06-12T06:24:43.604Z,17.69
2018-06-12T06:25:43.567Z,17.57
2018-06-12T06:26:43.543Z,17.63
2018-06-12T06:27:43.522Z,17.57
2018-06-12T06:28:43.487Z,17.65
2018-06-12T06:29:43.483Z,17.76
2018-06-12T06:30:43.448Z,17.84
2018-06-12T06:31:43.406Z,17.93
2018-06-12T06:32:43.382Z,18.03
2018-06-12T06:33:43.359Z,18.01
2018-06-12T06:34:43.328Z,17.91
2018-06-12T06:35:43.316Z,17.97
2018-06-12T06:36:43.287Z,17.91
2018-06-12T06:37:43.252Z,17.86
2018-06-12T06:38:43.325Z,17.87
2018-06-12T06:39:43.205Z,17.87
2018-06-12T06:40:43.315Z,17.94
2018-06-12T06:41:43.158Z,17.86
2018-06-12T06:42:43.154Z,17.66
2018-06-12T06:43:43.104Z,17.69
2018-06-12T06:44:43.085Z,17.71
2018-06-12T06:45:43.056Z,17.79
2018-06-12T06:46:43.025Z,17.75
2018-06-12T06:47:43.006Z,17.81
2018-06-12T06:48:42.985Z,17.83
2018-06-12T06:49:42.956Z,17.86
2018-06-12T06:50:42.924Z,17.86
2018-06-12T06:51:42.904Z,18.01
2018-06-12T06:52:42.876Z,17.93
2018-06-12T06:53:42.925Z,17.79
2018-06-12T06:54:42.986Z,17.87
2018-06-12T06:55:42.796Z,17.83
2018-06-12T06:56:42.776Z,18.02
2018-06-12T06:57:42.755Z,17.93
2018-06-12T06:58:42.733Z,17.96
2018-06-12T06:59:42.715Z,17.83
2018-06-12T07:00:42.683Z,17.99
2018-06-12T07:01:42.655Z,18.12
2018-06-12T07:02:42.636Z,17.99
2018-06-12T07:03:42.599Z,17.91
2018-06-12T07:04:42.569Z,17.97
2018-06-12T07:05:42.541Z,18.02
2018-06-12T07:06:42.567Z,18.11
2018-06-12T07:07:42.502Z,18.12
2018-06-12T07:08:42.476Z,18.18
2018-06-12T07:09:42.446Z,18.05
2018-06-12T07:10:42.422Z,18.05
2018-06-12T07:11:42.396Z,17.93
2018-06-12T07:12:42.424Z,17.63
2018-06-12T07:13:42.431Z,17.59
2018-06-12T07:14:42.432Z,17.75
2018-06-12T07:15:42.394Z,17.94
2018-06-12T07:16:42.286Z,17.90
2018-06-12T07:17:42.244Z,17.96
2018-06-12T07:18:42.221Z,18.08
2018-06-12T07:19:42.218Z,18.17
2018-06-12T07:20:42.185Z,18.15
2018-06-12T07:21:42.147Z,18.26
2018-06-12T07:22:42.124Z,18.36
2018-06-12T07:23:42.108Z,18.49
2018-06-12T07:24:42.069Z,18.52
2018-06-12T07:25:42.056Z,18.52
2018-06-12T07:26:42.025Z,18.38
2018-06-12T07:27:41.994Z,18.23
2018-06-12T07:28:41.986Z,18.28
2018-06-12T07:29:41.940Z,18.43
2018-06-12T07:30:41.916Z,18.42
2018-06-12T07:31:41.897Z,18.58
2018-06-12T07:32:41.876Z,18.67
2018-06-12T07:33:41.848Z,18.75
2018-06-12T07:34:41.836Z,18.74
2018-06-12T07:35:41.800Z,18.81
2018-06-12T07:36:41.774Z,18.71
2018-06-12T07:37:41.827Z,18.76
2018-06-12T07:38:41.732Z,18.68
2018-06-12T07:39:41.700Z,18.71
2018-06-12T07:40:41.684Z,18.75
2018-06-12T07:41:41.650Z,18.76
2018-06-12T07:42:41.625Z,18.79
2018-06-12T07:43:41.639Z,18.75
2018-06-12T07:44:41.590Z,18.85
2018-06-12T07:45:41.552Z,18.94
2018-06-12T07:46:41.558Z,18.91
2018-06-12T07:47:41.533Z,19.09
2018-06-12T07:48:41.484Z,19.26
2018-06-12T07:49:41.453Z,19.32
2018-06-12T07:50:41.434Z,19.22
2018-06-12T07:51:41.410Z,19.30
2018-06-12T07:52:41.383Z,19.08
2018-06-12T07:53:41.363Z,18.98
2018-06-12T07:54:41.332Z,19.19
2018-06-12T07:55:41.306Z,19.13
2018-06-12T07:56:41.289Z,19.13
2018-06-12T07:57:41.264Z,19.19
2018-06-12T07:58:41.236Z,19.30
2018-06-12T07:59:41.223Z,19.19
2018-06-12T08:00:41.185Z,19.30
2018-06-12T08:01:41.163Z,19.20
2018-06-12T08:02:41.144Z,19.27
2018-06-12T08:03:41.127Z,19.26
2018-06-12T08:04:41.097Z,19.26
2018-06-12T08:05:41.078Z,19.32
2018-06-12T08:06:41.053Z,19.53
2018-06-12T08:07:41.021Z,19.62
2018-06-12T08:08:40.998Z,19.52
2018-06-12T08:09:40.973Z,19.47
2018-06-12T08:10:40.951Z,19.52
2018-06-12T08:11:40.928Z,19.57
2018-06-12T08:12:40.911Z,19.42
2018-06-12T08:13:40.879Z,19.47
2018-06-12T08:14:40.855Z,19.44
2018-06-12T08:15:40.838Z,19.59
2018-06-12T08:16:40.817Z,19.52
2018-06-12T08:17:40.788Z,19.67
2018-06-12T08:18:40.858Z,19.60
2018-06-12T08:19:40.758Z,19.81
2018-06-12T08:20:40.772Z,19.86
2018-06-12T08:21:40.698Z,19.86
2018-06-12T08:22:40.696Z,19.86
2018-06-12T08:23:40.649Z,19.99
2018-06-12T08:24:40.627Z,20.02
2018-06-12T08:25:40.609Z,19.72
2018-06-12T08:26:40.579Z,19.64
2018-06-12T08:27:40.549Z,19.75
2018-06-12T08:28:40.527Z,19.87
2018-06-12T08:29:40.547Z,19.92
2018-06-12T08:30:40.528Z,20.11
2018-06-12T08:31:40.455Z,20.23
2018-06-12T08:32:40.428Z,20.23
2018-06-12T08:33:40.424Z,20.02
2018-06-12T08:34:40.388Z,20.23
2018-06-12T08:35:40.408Z,20.23
2018-06-12T08:36:40.344Z,20.25
2018-06-12T08:37:40.318Z,20.42
2018-06-12T08:38:40.293Z,20.55
2018-06-12T08:39:40.304Z,20.48
2018-06-12T08:40:40.242Z,20.32
2018-06-12T08:41:40.223Z,20.29
2018-06-12T08:42:40.201Z,20.41
2018-06-12T08:43:40.181Z,20.52
2018-06-12T08:44:40.154Z,20.56
2018-06-12T08:45:40.130Z,20.50
2018-06-12T08:46:40.115Z,20.68
2018-06-12T08:47:40.083Z,20.67
2018-06-12T08:48:40.070Z,20.71
2018-06-12T08:49:40.054Z,20.97
2018-06-12T08:50:40.026Z,20.82
2018-06-12T08:51:39.992Z,20.80
2018-06-12T08:52:39.968Z,20.77
2018-06-12T08:53:39.952Z,20.65
2018-06-12T08:54:39.921Z,20.58
2018-06-12T08:55:39.910Z,20.61
2018-06-12T08:56:39.893Z,20.71
2018-06-12T08:57:39.857Z,20.86
2018-06-12T08:58:39.842Z,21.01
2018-06-12T08:59:39.814Z,21.00
2018-06-12T09:00:39.808Z,21.18
2018-06-12T09:01:39.769Z,20.98
2018-06-12T09:02:39.815Z,21.04
2018-06-12T09:03:39.733Z,21.00
2018-06-12T09:04:39.692Z,20.98
2018-06-12T09:05:39.676Z,20.92
2018-06-12T09:06:39.661Z,20.95
2018-06-12T09:07:39.653Z,21.01
2018-06-12T09:08:39.611Z,20.58
2018-06-12T09:09:39.588Z,20.32
2018-06-12T09:10:39.583Z,20.56
2018-06-12T09:11:39.543Z,20.68
2018-06-12T09:12:39.522Z,20.44
2018-06-12T09:13:39.509Z,20.48
2018-06-12T09:14:39.476Z,20.41
2018-06-12T09:15:39.450Z,20.58
2018-06-12T09:16:39.442Z,20.56
2018-06-12T09:17:39.410Z,20.52
2018-06-12T09:18:39.380Z,20.56
2018-06-12T09:19:39.364Z,20.68
2018-06-12T09:20:39.343Z,20.82
2018-06-12T09:21:39.324Z,20.82
2018-06-12T09:22:39.293Z,20.93
2018-06-12T09:23:39.273Z,20.86
2018-06-12T09:24:39.268Z,20.97
2018-06-12T09:25:39.252Z,21.05
2018-06-12T09:26:39.197Z,21.20
2018-06-12T09:27:39.181Z,21.25
2018-06-12T09:28:39.162Z,20.82
2018-06-12T09:29:39.137Z,20.80
2018-06-12T09:30:39.121Z,20.93
2018-06-12T09:31:39.117Z,20.93
2018-06-12T09:32:39.101Z,21.11
2018-06-12T09:33:39.046Z,21.20
2018-06-12T09:34:39.049Z,21.23
2018-06-12T09:35:39.066Z,20.98
2018-06-12T09:36:38.980Z,20.98
2018-06-12T09:37:38.982Z,20.93
2018-06-12T09:38:38.942Z,20.97
2018-06-12T09:39:38.919Z,20.82
2018-06-12T09:40:38.886Z,20.93
2018-06-12T09:41:38.868Z,20.85
2018-06-12T09:42:38.850Z,21.22
2018-06-12T09:43:38.817Z,21.34
2018-06-12T09:44:38.798Z,21.50
2018-06-12T09:45:38.775Z,21.69
2018-06-12T09:46:38.750Z,21.90
2018-06-12T09:47:38.747Z,22.00
2018-06-12T09:48:38.720Z,22.00
2018-06-12T09:49:38.714Z,21.80
2018-06-12T09:50:38.666Z,21.93
2018-06-12T09:51:38.645Z,21.96
2018-06-12T09:52:38.623Z,21.88
2018-06-12T09:53:38.627Z,21.84
2018-06-12T09:54:38.581Z,21.63
2018-06-12T09:55:38.550Z,21.73
2018-06-12T09:56:38.564Z,21.97
2018-06-12T09:57:38.567Z,22.04
2018-06-12T09:58:38.486Z,22.33
2018-06-12T09:59:38.484Z,22.61
2018-06-12T10:00:38.446Z,22.76
2018-06-12T10:01:38.435Z,22.36
2018-06-12T10:02:38.417Z,22.28
2018-06-12T10:03:38.390Z,22.13
2018-06-12T10:04:38.368Z,22.23
2018-06-12T10:05:38.349Z,22.27
2018-06-12T10:06:38.332Z,22.21
2018-06-12T10:07:38.300Z,21.85
2018-06-12T10:08:38.280Z,21.97
2018-06-12T10:09:38.272Z,22.13
2018-06-12T10:10:38.247Z,22.11
2018-06-12T10:11:38.216Z,22.04
2018-06-12T10:12:38.193Z,21.98
2018-06-12T10:13:38.194Z,22.11
2018-06-12T10:14:38.175Z,22.09
2018-06-12T10:15:38.125Z,22.13
2018-06-12T10:16:38.110Z,22.00
2018-06-12T10:17:38.097Z,22.15
2018-06-12T10:18:38.068Z,22.23
2018-06-12T10:19:38.048Z,22.38
2018-06-12T10:20:38.028Z,22.21
2018-06-12T10:21:38.023Z,22.43
2018-06-12T10:22:37.984Z,22.53
2018-06-12T10:23:37.967Z,22.71
2018-06-12T10:24:37.990Z,22.49
2018-06-12T10:25:37.941Z,22.43
2018-06-12T10:26:37.903Z,22.41
2018-06-12T10:27:37.874Z,22.28
2018-06-12T10:28:37.859Z,22.28
2018-06-12T10:29:37.840Z,22.43
2018-06-12T10:30:37.811Z,22.38
2018-06-12T10:31:37.805Z,22.55
2018-06-12T10:32:37.787Z,22.68
2018-06-12T10:33:37.768Z,22.64
2018-06-12T10:34:37.736Z,22.71
2018-06-12T10:35:37.711Z,22.55
2018-06-12T10:36:37.695Z,22.43
2018-06-12T10:37:37.674Z,22.48
2018-06-12T10:38:37.654Z,22.44
2018-06-12T10:39:37.629Z,22.68
2018-06-12T10:40:37.619Z,22.49
2018-06-12T10:41:37.586Z,22.85
2018-06-12T10:42:37.566Z,22.98
2018-06-12T10:43:37.581Z,23.14
2018-06-12T10:44:37.524Z,23.15
2018-06-12T10:45:37.593Z,23.25
2018-06-12T10:46:37.484Z,23.22
2018-06-12T10:47:37.494Z,23.44
2018-06-12T10:48:37.467Z,23.28
2018-06-12T10:49:37.623Z,23.28
2018-06-12T10:50:37.399Z,23.44
2018-06-12T10:51:37.402Z,23.46
2018-06-12T10:52:37.360Z,23.59
2018-06-12T10:53:37.346Z,23.55
2018-06-12T10:54:37.325Z,23.44
2018-06-12T10:55:37.302Z,23.51
2018-06-12T10:56:37.276Z,23.26
2018-06-12T10:57:37.264Z,23.55
2018-06-12T10:58:37.249Z,23.46
2018-06-12T10:59:37.216Z,23.07
2018-06-12T11:00:37.200Z,23.21
2018-06-12T11:01:37.201Z,23.49
2018-06-12T11:02:37.154Z,23.71
2018-06-12T11:03:37.163Z,23.98
2018-06-12T11:04:37.167Z,24.11
2018-06-12T11:05:37.103Z,23.86
2018-06-12T11:06:37.088Z,23.85
2018-06-12T11:07:37.053Z,23.79
2018-06-12T11:08:37.037Z,23.74
2018-06-12T11:09:37.021Z,23.97
2018-06-12T11:10:37.006Z,24.03
2018-06-12T11:11:36.970Z,23.84
2018-06-12T11:12:36.953Z,23.82
2018-06-12T11:13:36.936Z,23.89
2018-06-12T11:14:36.923Z,23.44
2018-06-12T11:15:36.903Z,23.55
2018-06-12T11:16:36.884Z,23.34
2018-06-12T11:17:36.862Z,23.03
2018-06-12T11:18:36.851Z,23.22
2018-06-12T11:19:36.814Z,23.55
2018-06-12T11:20:36.845Z,23.67
2018-06-12T11:21:36.822Z,23.91
2018-06-12T11:22:36.777Z,24.00
2018-06-12T11:23:36.745Z,24.11
2018-06-12T11:24:36.725Z,24.41
2018-06-12T11:25:36.698Z,24.45
2018-06-12T11:26:36.677Z,24.08
2018-06-12T11:27:36.670Z,24.25
2018-06-12T11:28:36.650Z,24.41
2018-06-12T11:29:36.626Z,24.59
2018-06-12T11:30:36.615Z,24.43
2018-06-12T11:31:36.590Z,24.10
2018-06-12T11:32:36.565Z,23.88
2018-06-12T11:33:36.545Z,23.84
2018-06-12T11:34:36.535Z,23.74
2018-06-12T11:35:36.511Z,23.52
2018-06-12T11:36:36.495Z,23.60
2018-06-12T11:37:36.470Z,23.64
2018-06-12T11:38:36.462Z,23.55
2018-06-12T11:39:36.445Z,23.48
2018-06-12T11:40:36.433Z,23.61
2018-06-12T11:41:36.395Z,23.52
2018-06-12T11:42:36.380Z,23.44
2018-06-12T11:43:36.351Z,23.44
2018-06-12T11:44:36.339Z,23.36
2018-06-12T11:45:36.320Z,23.11
2018-06-12T11:46:36.293Z,22.96
2018-06-12T11:47:36.277Z,22.74
2018-06-12T11:48:36.258Z,22.37
2018-06-12T11:49:36.240Z,22.30
2018-06-12T11:50:36.219Z,22.30
2018-06-12T11:51:36.208Z,22.64
2018-06-12T11:52:36.174Z,22.59
2018-06-12T11:53:36.168Z,22.49
2018-06-12T11:54:36.130Z,22.71
2018-06-12T11:55:36.119Z,22.81
2018-06-12T11:56:36.092Z,22.80
2018-06-12T11:57:36.077Z,22.52
2018-06-12T11:58:36.045Z,22.53
2018-06-12T11:59:36.038Z,22.44
2018-06-12T12:00:36.015Z,22.43
2018-06-12T12:01:36.009Z,22.36
2018-06-12T12:02:36.018Z,22.15
2018-06-12T12:03:35.947Z,22.13
2018-06-12T12:04:35.935Z,22.00
2018-06-12T12:05:35.931Z,22.07
2018-06-12T12:06:35.879Z,22.01
2018-06-12T12:07:35.870Z,21.93
2018-06-12T12:08:35.843Z,22.13
2018-06-12T12:09:35.873Z,22.23
2018-06-12T12:10:35.812Z,22.22
2018-06-12T12:11:35.772Z,22.07
2018-06-12T12:12:35.767Z,22.04
2018-06-12T12:13:35.734Z,21.84
2018-06-12T12:14:35.718Z,21.97
2018-06-12T12:15:35.697Z,22.01
2018-06-12T12:16:35.663Z,21.98
2018-06-12T12:17:35.650Z,21.93
2018-06-12T12:18:35.661Z,21.93
2018-06-12T12:19:35.614Z,21.88
2018-06-12T12:20:35.587Z,21.69
2018-06-12T12:21:35.564Z,21.75
2018-06-12T12:22:35.615Z,21.62
2018-06-12T12:23:35.523Z,21.45
2018-06-12T12:24:35.494Z,21.56
2018-06-12T12:25:35.473Z,21.63
2018-06-12T12:26:35.509Z,21.67
2018-06-12T12:27:35.452Z,21.62
2018-06-12T12:28:35.461Z,21.53
2018-06-12T12:29:35.388Z,21.44
2018-06-12T12:30:35.369Z,21.38
2018-06-12T12:31:35.343Z,21.43
2018-06-12T12:32:35.323Z,21.50
2018-06-12T12:33:35.299Z,21.29
2018-06-12T12:34:35.278Z,21.22
2018-06-12T12:35:35.247Z,21.19
2018-06-12T12:36:35.233Z,21.26
2018-06-12T12:37:35.209Z,21.14
2018-06-12T12:38:35.186Z,21.18
2018-06-12T12:39:35.168Z,21.29
2018-06-12T12:40:35.142Z,21.28
2018-06-12T12:41:35.128Z,21.29
2018-06-12T12:42:35.112Z,21.18
2018-06-12T12:43:35.111Z,21.29
2018-06-12T12:44:35.054Z,21.35
2018-06-12T12:45:35.032Z,21.30
2018-06-12T12:46:35.012Z,21.26
2018-06-12T12:47:34.983Z,21.30
2018-06-12T12:48:34.965Z,21.18
2018-06-12T12:49:34.941Z,21.05
2018-06-12T12:50:34.923Z,21.07
2018-06-12T12:51:34.909Z,21.14
2018-06-12T12:52:34.879Z,21.04
2018-06-12T12:53:34.928Z,21.13
2018-06-12T12:54:34.833Z,21.07
2018-06-12T12:55:34.806Z,21.07
2018-06-12T12:56:34.801Z,21.05
2018-06-12T12:57:34.765Z,21.05
2018-06-12T12:58:34.748Z,20.95
2018-06-12T12:59:34.724Z,20.95
2018-06-12T13:00:34.700Z,21.11
2018-06-12T13:01:34.686Z,20.95
2018-06-12T13:02:34.650Z,20.80
2018-06-12T13:03:34.636Z,20.88
2018-06-12T13:04:34.615Z,20.85
2018-06-12T13:05:34.590Z,20.75
2018-06-12T13:06:34.567Z,20.79
2018-06-12T13:07:34.583Z,20.83
2018-06-12T13:08:34.518Z,20.63
2018-06-12T13:09:34.524Z,20.44
2018-06-12T13:10:34.486Z,20.61
2018-06-12T13:11:34.455Z,20.46
2018-06-12T13:12:34.432Z,20.53
2018-06-12T13:13:34.411Z,20.48
2018-06-12T13:14:34.388Z,20.56